Terminal Aerodrome Forecast
Issued by NWS Shreveport, LA

Home | Current Version | Previous Version | Text Only | Print | Product List | Glossary On
Versions: 1 2 3 4 5 6 7 8 9 10 11 12 13 14 15 16 17 18
655
FTUS44 KSHV 241122
TAFMLU
TAF
KMLU 241122Z 2412/2512 VRB03KT 3SM BR FEW006
      TEMPO 2413/2415 3SM BR BKN005
     FM241500 23003KT P6SM SCT012
     FM241600 20003KT P6SM SCT040
     FM242100 16005KT P6SM SCT050
     FM250100 12002KT P6SM FEW050
     FM251000 00000KT P6SM FEW020=

USA.gov is the U.S. government's official web portal to all federal, state and local government web resources and services.